sensor_id;sensor_type;location;lat;lon;timestamp;P1;durP1;ratioP1;P2;durP2;ratioP2
4692;SDS011;11710;48.024;16.296;2023-05-07T05:43:09;16.00;;;11.63;;
4692;SDS011;11710;48.024;16.296;2023-05-07T05:45:36;13.83;;;11.97;;
4692;SDS011;11710;48.024;16.296;2023-05-07T05:48:03;14.50;;;12.50;;
4692;SDS011;11710;48.024;16.296;2023-05-07T05:50:30;17.77;;;12.20;;
4692;SDS011;11710;48.024;16.296;2023-05-07T05:52:58;15.70;;;13.07;;
4692;SDS011;11710;48.024;16.296;2023-05-07T05:55:25;15.57;;;13.43;;
4692;SDS011;11710;48.024;16.296;2023-05-07T05:57:52;17.43;;;13.47;;
4692;SDS011;11710;48.024;16.296;2023-05-07T06:00:21;17.67;;;14.40;;
4692;SDS011;11710;48.024;16.296;2023-05-07T06:02:48;17.83;;;14.00;;
4692;SDS011;11710;48.024;16.296;2023-05-07T06:05:15;16.10;;;13.50;;
4692;SDS011;11710;48.024;16.296;2023-05-07T06:07:43;16.67;;;12.50;;
4692;SDS011;11710;48.024;16.296;2023-05-07T06:10:10;15.80;;;11.70;;
4692;SDS011;11710;48.024;16.296;2023-05-07T06:12:37;17.17;;;13.73;;
4692;SDS011;11710;48.024;16.296;2023-05-07T06:15:05;24.80;;;14.70;;
4692;SDS011;11710;48.024;16.296;2023-05-07T06:17:34;15.80;;;13.70;;
4692;SDS011;11710;48.024;16.296;2023-05-07T06:20:01;22.80;;;18.37;;
4692;SDS011;11710;48.024;16.296;2023-05-07T06:22:28;26.13;;;20.60;;
4692;SDS011;11710;48.024;16.296;2023-05-07T06:24:56;28.47;;;19.90;;
4692;SDS011;11710;48.024;16.296;2023-05-07T06:27:23;27.30;;;21.50;;
4692;SDS011;11710;48.024;16.296;2023-05-07T06:29:50;29.73;;;21.43;;
4692;SDS011;11710;48.024;16.296;2023-05-07T06:32:17;25.47;;;20.47;;
4692;SDS011;11710;48.024;16.296;2023-05-07T06:34:47;28.50;;;20.97;;
4692;SDS011;11710;48.024;16.296;2023-05-07T06:37:14;26.87;;;19.57;;
4692;SDS011;11710;48.024;16.296;2023-05-07T06:39:41;29.43;;;21.60;;
4692;SDS011;11710;48.024;16.296;2023-05-07T06:42:08;30.40;;;22.17;;
4692;SDS011;11710;48.024;16.296;2023-05-07T06:44:35;26.67;;;21.43;;
4692;SDS011;11710;48.024;16.296;2023-05-07T06:47:02;27.20;;;20.50;;
4692;SDS011;11710;48.024;16.296;2023-05-07T06:49:30;28.30;;;21.40;;
4692;SDS011;11710;48.024;16.296;2023-05-07T06:51:59;27.80;;;21.07;;
4692;SDS011;11710;48.024;16.296;2023-05-07T06:54:26;25.37;;;20.20;;
4692;SDS011;11710;48.024;16.296;2023-05-07T06:56:54;27.30;;;21.47;;
4692;SDS011;11710;48.024;16.296;2023-05-07T06:59:21;28.60;;;20.80;;
4692;SDS011;11710;48.024;16.296;2023-05-07T07:01:48;32.10;;;22.03;;
4692;SDS011;11710;48.024;16.296;2023-05-07T07:04:15;27.80;;;21.33;;
4692;SDS011;11710;48.024;16.296;2023-05-07T07:06:42;29.90;;;21.80;;
4692;SDS011;11710;48.024;16.296;2023-05-07T07:09:11;26.63;;;21.23;;
4692;SDS011;11710;48.024;16.296;2023-05-07T07:11:38;25.97;;;21.10;;
4692;SDS011;11710;48.024;16.296;2023-05-07T07:14:05;28.17;;;21.40;;
4692;SDS011;11710;48.024;16.296;2023-05-07T07:16:32;28.07;;;23.33;;
4692;SDS011;11710;48.024;16.296;2023-05-07T07:18:59;28.13;;;22.40;;
4692;SDS011;11710;48.024;16.296;2023-05-07T07:21:27;28.33;;;22.10;;
4692;SDS011;11710;48.024;16.296;2023-05-07T07:23:54;30.70;;;22.87;;
4692;SDS011;11710;48.024;16.296;2023-05-07T07:26:22;34.27;;;22.97;;
4692;SDS011;11710;48.024;16.296;2023-05-07T07:28:50;26.73;;;21.27;;
4692;SDS011;11710;48.024;16.296;2023-05-07T07:31:17;29.70;;;23.47;;
4692;SDS011;11710;48.024;16.296;2023-05-07T07:33:44;34.47;;;21.20;;
4692;SDS011;11710;48.024;16.296;2023-05-07T07:36:11;30.27;;;22.53;;
4692;SDS011;11710;48.024;16.296;2023-05-07T07:38:38;27.17;;;20.40;;
4692;SDS011;11710;48.024;16.296;2023-05-07T07:41:07;30.63;;;21.63;;
4692;SDS011;11710;48.024;16.296;2023-05-07T07:43:36;29.07;;;21.43;;
4692;SDS011;11710;48.024;16.296;2023-05-07T07:46:03;26.80;;;21.50;;
4692;SDS011;11710;48.024;16.296;2023-05-07T07:48:30;29.20;;;22.50;;
4692;SDS011;11710;48.024;16.296;2023-05-07T07:50:58;29.60;;;21.90;;
4692;SDS011;11710;48.024;16.296;2023-05-07T07:53:25;26.90;;;21.37;;
4692;SDS011;11710;48.024;16.296;2023-05-07T07:55:52;25.30;;;21.27;;
4692;SDS011;11710;48.024;16.296;2023-05-07T07:58:20;30.03;;;21.67;;
4692;SDS011;11710;48.024;16.296;2023-05-07T08:00:48;25.87;;;20.80;;
4692;SDS011;11710;48.024;16.296;2023-05-07T08:03:16;29.10;;;22.60;;
4692;SDS011;11710;48.024;16.296;2023-05-07T08:05:44;25.70;;;20.30;;
4692;SDS011;11710;48.024;16.296;2023-05-07T08:08:12;25.50;;;20.30;;
4692;SDS011;11710;48.024;16.296;2023-05-07T08:10:39;27.90;;;21.70;;
4692;SDS011;11710;48.024;16.296;2023-05-07T08:13:06;27.43;;;22.00;;
4692;SDS011;11710;48.024;16.296;2023-05-07T08:15:33;27.40;;;22.03;;
4692;SDS011;11710;48.024;16.296;2023-05-07T08:20:31;25.60;;;20.47;;
4692;SDS011;11710;48.024;16.296;2023-05-07T08:23:01;25.90;;;20.13;;
4692;SDS011;11710;48.024;16.296;2023-05-07T08:25:28;25.83;;;20.40;;
4692;SDS011;11710;48.024;16.296;2023-05-07T08:27:55;32.47;;;21.30;;
4692;SDS011;11710;48.024;16.296;2023-05-07T08:30:22;28.67;;;21.17;;
4692;SDS011;11710;48.024;16.296;2023-05-07T08:32:49;27.37;;;20.87;;
4692;SDS011;11710;48.024;16.296;2023-05-07T08:35:18;26.67;;;21.47;;
4692;SDS011;11710;48.024;16.296;2023-05-07T08:37:45;24.47;;;20.60;;
4692;SDS011;11710;48.024;16.296;2023-05-07T08:40:12;27.70;;;20.43;;
4692;SDS011;11710;48.024;16.296;2023-05-07T08:42:40;29.10;;;20.40;;
4692;SDS011;11710;48.024;16.296;2023-05-07T08:45:08;27.37;;;21.50;;
4692;SDS011;11710;48.024;16.296;2023-05-07T08:47:40;28.47;;;20.17;;
4692;SDS011;11710;48.024;16.296;2023-05-07T08:50:10;27.97;;;21.53;;
4692;SDS011;11710;48.024;16.296;2023-05-07T08:52:40;26.93;;;20.90;;
4692;SDS011;11710;48.024;16.296;2023-05-07T08:55:09;28.60;;;20.10;;
4692;SDS011;11710;48.024;16.296;2023-05-07T08:57:39;23.57;;;19.47;;
4692;SDS011;11710;48.024;16.296;2023-05-07T09:00:08;23.53;;;19.40;;
4692;SDS011;11710;48.024;16.296;2023-05-07T09:02:40;23.93;;;19.47;;
4692;SDS011;11710;48.024;16.296;2023-05-07T09:05:08;23.90;;;18.53;;
4692;SDS011;11710;48.024;16.296;2023-05-07T09:07:36;23.50;;;19.00;;
4692;SDS011;11710;48.024;16.296;2023-05-07T09:10:06;23.40;;;18.63;;
4692;SDS011;11710;48.024;16.296;2023-05-07T09:12:35;27.30;;;19.23;;
4692;SDS011;11710;48.024;16.296;2023-05-07T09:15:03;23.00;;;18.57;;
4692;SDS011;11710;48.024;16.296;2023-05-07T09:17:32;22.57;;;18.63;;
4692;SDS011;11710;48.024;16.296;2023-05-07T09:20:02;22.23;;;17.30;;
4692;SDS011;11710;48.024;16.296;2023-05-07T09:22:31;23.67;;;17.23;;
4692;SDS011;11710;48.024;16.296;2023-05-07T09:24:58;20.20;;;16.10;;
4692;SDS011;11710;48.024;16.296;2023-05-07T09:27:27;21.70;;;17.03;;
4692;SDS011;11710;48.024;16.296;2023-05-07T09:29:54;19.97;;;16.30;;
4692;SDS011;11710;48.024;16.296;2023-05-07T09:32:22;19.30;;;16.40;;
4692;SDS011;11710;48.024;16.296;2023-05-07T09:34:49;20.37;;;17.03;;
4692;SDS011;11710;48.024;16.296;2023-05-07T09:37:16;18.93;;;16.27;;
4692;SDS011;11710;48.024;16.296;2023-05-07T09:39:44;19.50;;;16.27;;
4692;SDS011;11710;48.024;16.296;2023-05-07T09:42:13;19.30;;;16.53;;
4692;SDS011;11710;48.024;16.296;2023-05-07T09:44:42;19.33;;;16.27;;
4692;SDS011;11710;48.024;16.296;2023-05-07T09:47:10;20.63;;;17.17;;
4692;SDS011;11710;48.024;16.296;2023-05-07T09:49:46;20.40;;;18.20;;
4692;SDS011;11710;48.024;16.296;2023-05-07T09:52:14;21.43;;;18.03;;
4692;SDS011;11710;48.024;16.296;2023-05-07T09:54:42;21.40;;;17.47;;
4692;SDS011;11710;48.024;16.296;2023-05-07T09:57:11;18.67;;;16.67;;
4692;SDS011;11710;48.024;16.296;2023-05-07T09:59:39;18.90;;;16.90;;
4692;SDS011;11710;48.024;16.296;2023-05-07T10:02:11;18.37;;;15.77;;
4692;SDS011;11710;48.024;16.296;2023-05-07T10:04:41;18.33;;;14.60;;
4692;SDS011;11710;48.024;16.296;2023-05-07T10:07:13;18.67;;;14.40;;
4692;SDS011;11710;48.024;16.296;2023-05-07T10:09:40;17.30;;;14.67;;
4692;SDS011;11710;48.024;16.296;2023-05-07T10:12:09;20.33;;;15.97;;
4692;SDS011;11710;48.024;16.296;2023-05-07T10:14:36;21.13;;;17.53;;
4692;SDS011;11710;48.024;16.296;2023-05-07T10:17:06;24.43;;;17.00;;
4692;SDS011;11710;48.024;16.296;2023-05-07T10:19:34;18.83;;;16.47;;
4692;SDS011;11710;48.024;16.296;2023-05-07T10:22:05;18.80;;;16.90;;
4692;SDS011;11710;48.024;16.296;2023-05-07T10:24:35;19.47;;;15.47;;
4692;SDS011;11710;48.024;16.296;2023-05-07T10:27:04;17.90;;;15.40;;
4692;SDS011;11710;48.024;16.296;2023-05-07T10:29:37;17.00;;;15.20;;
4692;SDS011;11710;48.024;16.296;2023-05-07T10:32:19;16.90;;;14.97;;
4692;SDS011;11710;48.024;16.296;2023-05-07T10:34:59;19.27;;;15.00;;
4692;SDS011;11710;48.024;16.296;2023-05-07T10:37:29;15.73;;;14.13;;
4692;SDS011;11710;48.024;16.296;2023-05-07T10:39:56;18.10;;;14.80;;
4692;SDS011;11710;48.024;16.296;2023-05-07T10:42:25;19.03;;;15.87;;
4692;SDS011;11710;48.024;16.296;2023-05-07T10:44:52;17.53;;;15.53;;
4692;SDS011;11710;48.024;16.296;2023-05-07T10:47:20;19.80;;;14.83;;
4692;SDS011;11710;48.024;16.296;2023-05-07T10:55:49;19.17;;;15.40;;
4692;SDS011;11710;48.024;16.296;2023-05-07T10:58:24;17.37;;;15.57;;
4692;SDS011;11710;48.024;16.296;2023-05-07T11:00:55;16.37;;;14.63;;
4692;SDS011;11710;48.024;16.296;2023-05-07T11:03:25;16.33;;;13.63;;
4692;SDS011;11710;48.024;16.296;2023-05-07T11:08:52;19.23;;;13.80;;
4692;SDS011;11710;48.024;16.296;2023-05-07T11:11:22;14.80;;;12.67;;
4692;SDS011;11710;48.024;16.296;2023-05-07T11:14:13;17.30;;;15.13;;
4692;SDS011;11710;48.024;16.296;2023-05-07T11:16:41;17.00;;;15.20;;
4692;SDS011;11710;48.024;16.296;2023-05-07T11:19:11;16.40;;;13.63;;
4692;SDS011;11710;48.024;16.296;2023-05-07T11:21:38;15.83;;;14.17;;
4692;SDS011;11710;48.024;16.296;2023-05-07T11:24:07;16.00;;;14.30;;
4692;SDS011;11710;48.024;16.296;2023-05-07T11:26:45;16.70;;;14.07;;
4692;SDS011;11710;48.024;16.296;2023-05-07T11:29:15;15.73;;;14.13;;
4692;SDS011;11710;48.024;16.296;2023-05-07T11:31:43;16.10;;;14.10;;
4692;SDS011;11710;48.024;16.296;2023-05-07T11:34:16;15.00;;;13.40;;
4692;SDS011;11710;48.024;16.296;2023-05-07T11:36:48;17.20;;;14.00;;
4692;SDS011;11710;48.024;16.296;2023-05-07T11:39:29;16.30;;;13.90;;
4692;SDS011;11710;48.024;16.296;2023-05-07T11:41:58;19.10;;;13.33;;
4692;SDS011;11710;48.024;16.296;2023-05-07T11:44:39;15.83;;;14.13;;
4692;SDS011;11710;48.024;16.296;2023-05-07T11:47:07;15.47;;;13.87;;
4692;SDS011;11710;48.024;16.296;2023-05-07T11:49:37;13.77;;;12.37;;
4692;SDS011;11710;48.024;16.296;2023-05-07T11:52:06;17.80;;;14.17;;
4692;SDS011;11710;48.024;16.296;2023-05-07T11:54:36;17.47;;;15.33;;
4692;SDS011;11710;48.024;16.296;2023-05-07T11:57:03;18.63;;;14.47;;
4692;SDS011;11710;48.024;16.296;2023-05-07T11:59:37;17.03;;;15.27;;
4692;SDS011;11710;48.024;16.296;2023-05-07T12:02:06;17.67;;;14.90;;
4692;SDS011;11710;48.024;16.296;2023-05-07T12:04:33;17.90;;;14.87;;
4692;SDS011;11710;48.024;16.296;2023-05-07T12:07:02;18.00;;;14.40;;
4692;SDS011;11710;48.024;16.296;2023-05-07T12:09:31;16.07;;;14.00;;
4692;SDS011;11710;48.024;16.296;2023-05-07T12:12:02;16.40;;;13.70;;
4692;SDS011;11710;48.024;16.296;2023-05-07T12:14:30;15.90;;;14.20;;
4692;SDS011;11710;48.024;16.296;2023-05-07T12:16:57;16.70;;;12.87;;
4692;SDS011;11710;48.024;16.296;2023-05-07T12:19:28;15.00;;;13.10;;
4692;SDS011;11710;48.024;16.296;2023-05-07T12:21:55;14.30;;;12.80;;
4692;SDS011;11710;48.024;16.296;2023-05-07T12:24:25;15.80;;;13.60;;
4692;SDS011;11710;48.024;16.296;2023-05-07T12:26:52;16.43;;;14.60;;
4692;SDS011;11710;48.024;16.296;2023-05-07T12:29:21;15.67;;;14.07;;
4692;SDS011;11710;48.024;16.296;2023-05-07T12:31:49;17.03;;;13.67;;
4692;SDS011;11710;48.024;16.296;2023-05-07T12:34:16;16.10;;;13.77;;
4692;SDS011;11710;48.024;16.296;2023-05-07T12:36:43;15.17;;;13.57;;
4692;SDS011;11710;48.024;16.296;2023-05-07T12:39:11;17.43;;;14.00;;
4692;SDS011;11710;48.024;16.296;2023-05-07T12:41:55;15.00;;;13.00;;
4692;SDS011;11710;48.024;16.296;2023-05-07T12:44:23;14.53;;;12.83;;
4692;SDS011;11710;48.024;16.296;2023-05-07T12:46:51;16.33;;;13.50;;
4692;SDS011;11710;48.024;16.296;2023-05-07T12:49:19;15.43;;;13.47;;
4692;SDS011;11710;48.024;16.296;2023-05-07T12:51:47;14.80;;;12.70;;
4692;SDS011;11710;48.024;16.296;2023-05-07T12:54:27;14.57;;;12.63;;
4692;SDS011;11710;48.024;16.296;2023-05-07T12:57:01;14.20;;;12.03;;
4692;SDS011;11710;48.024;16.296;2023-05-07T12:59:33;13.60;;;12.20;;
4692;SDS011;11710;48.024;16.296;2023-05-07T13:02:01;15.40;;;12.70;;
4692;SDS011;11710;48.024;16.296;2023-05-07T13:04:28;14.30;;;12.33;;
4692;SDS011;11710;48.024;16.296;2023-05-07T13:06:56;20.40;;;12.00;;
4692;SDS011;11710;48.024;16.296;2023-05-07T13:09:23;14.30;;;11.73;;
4692;SDS011;11710;48.024;16.296;2023-05-07T13:11:50;15.97;;;12.50;;
4692;SDS011;11710;48.024;16.296;2023-05-07T13:14:19;14.07;;;12.60;;
4692;SDS011;11710;48.024;16.296;2023-05-07T13:16:47;13.80;;;11.90;;
4692;SDS011;11710;48.024;16.296;2023-05-07T13:19:14;13.97;;;11.70;;
4692;SDS011;11710;48.024;16.296;2023-05-07T13:21:42;14.80;;;11.97;;
4692;SDS011;11710;48.024;16.296;2023-05-07T13:24:09;13.00;;;11.40;;
4692;SDS011;11710;48.024;16.296;2023-05-07T13:26:36;14.57;;;11.90;;
4692;SDS011;11710;48.024;16.296;2023-05-07T13:29:04;14.67;;;10.73;;
4692;SDS011;11710;48.024;16.296;2023-05-07T13:31:32;13.87;;;11.77;;
4692;SDS011;11710;48.024;16.296;2023-05-07T13:34:00;12.13;;;10.83;;
4692;SDS011;11710;48.024;16.296;2023-05-07T13:36:28;12.70;;;10.90;;
4692;SDS011;11710;48.024;16.296;2023-05-07T13:38:58;12.87;;;11.43;;
4692;SDS011;11710;48.024;16.296;2023-05-07T13:41:25;15.00;;;11.17;;
4692;SDS011;11710;48.024;16.296;2023-05-07T13:43:53;14.47;;;10.97;;
4692;SDS011;11710;48.024;16.296;2023-05-07T13:46:20;18.33;;;12.37;;
4692;SDS011;11710;48.024;16.296;2023-05-07T13:48:49;15.13;;;11.90;;
4692;SDS011;11710;48.024;16.296;2023-05-07T13:51:16;16.40;;;12.70;;
4692;SDS011;11710;48.024;16.296;2023-05-07T13:53:44;14.10;;;12.60;;
4692;SDS011;11710;48.024;16.296;2023-05-07T13:56:11;12.03;;;10.73;;
4692;SDS011;11710;48.024;16.296;2023-05-07T13:58:39;11.63;;;10.10;;
4692;SDS011;11710;48.024;16.296;2023-05-07T14:01:06;12.90;;;10.90;;
4692;SDS011;11710;48.024;16.296;2023-05-07T14:03:34;11.47;;;10.27;;
4692;SDS011;11710;48.024;16.296;2023-05-07T14:06:04;12.57;;;11.27;;
4692;SDS011;11710;48.024;16.296;2023-05-07T14:08:31;11.93;;;10.00;;
4692;SDS011;11710;48.024;16.296;2023-05-07T14:10:58;11.17;;;9.63;;
4692;SDS011;11710;48.024;16.296;2023-05-07T14:13:26;10.90;;;9.67;;
4692;SDS011;11710;48.024;16.296;2023-05-07T14:15:53;10.97;;;9.00;;
4692;SDS011;11710;48.024;16.296;2023-05-07T14:18:20;11.50;;;9.33;;
4692;SDS011;11710;48.024;16.296;2023-05-07T14:20:47;11.13;;;9.17;;
4692;SDS011;11710;48.024;16.296;2023-05-07T14:23:16;12.27;;;9.93;;
4692;SDS011;11710;48.024;16.296;2023-05-07T14:25:44;10.93;;;9.10;;
4692;SDS011;11710;48.024;16.296;2023-05-07T14:28:13;12.67;;;9.67;;
4692;SDS011;11710;48.024;16.296;2023-05-07T14:30:40;11.83;;;9.80;;
4692;SDS011;11710;48.024;16.296;2023-05-07T14:33:07;10.47;;;9.43;;
4692;SDS011;11710;48.024;16.296;2023-05-07T14:35:34;10.23;;;9.20;;
4692;SDS011;11710;48.024;16.296;2023-05-07T14:38:01;10.90;;;9.27;;
4692;SDS011;11710;48.024;16.296;2023-05-07T14:40:30;11.50;;;9.10;;
4692;SDS011;11710;48.024;16.296;2023-05-07T14:42:57;10.53;;;9.43;;
4692;SDS011;11710;48.024;16.296;2023-05-07T14:45:25;10.40;;;9.30;;
4692;SDS011;11710;48.024;16.296;2023-05-07T14:47:52;10.97;;;9.50;;
4692;SDS011;11710;48.024;16.296;2023-05-07T14:50:20;11.23;;;9.67;;
4692;SDS011;11710;48.024;16.296;2023-05-07T14:52:48;11.20;;;8.80;;
4692;SDS011;11710;48.024;16.296;2023-05-07T14:55:15;16.30;;;9.33;;
4692;SDS011;11710;48.024;16.296;2023-05-07T14:57:44;10.17;;;9.13;;
4692;SDS011;11710;48.024;16.296;2023-05-07T15:00:11;9.80;;;8.80;;
4692;SDS011;11710;48.024;16.296;2023-05-07T15:02:39;10.77;;;8.90;;
4692;SDS011;11710;48.024;16.296;2023-05-07T15:05:07;9.70;;;8.70;;
4692;SDS011;11710;48.024;16.296;2023-05-07T15:07:34;9.80;;;8.80;;
4692;SDS011;11710;48.024;16.296;2023-05-07T15:10:01;11.00;;;9.90;;
4692;SDS011;11710;48.024;16.296;2023-05-07T15:12:29;12.47;;;9.70;;
4692;SDS011;11710;48.024;16.296;2023-05-07T15:14:57;10.53;;;9.03;;
4692;SDS011;11710;48.024;16.296;2023-05-07T15:17:24;9.17;;;7.97;;
4692;SDS011;11710;48.024;16.296;2023-05-07T15:19:52;9.27;;;8.33;;
4692;SDS011;11710;48.024;16.296;2023-05-07T15:22:19;7.63;;;6.93;;
4692;SDS011;11710;48.024;16.296;2023-05-07T15:24:47;7.43;;;6.73;;
4692;SDS011;11710;48.024;16.296;2023-05-07T15:27:14;7.50;;;6.80;;
4692;SDS011;11710;48.024;16.296;2023-05-07T15:29:42;7.43;;;6.67;;
4692;SDS011;11710;48.024;16.296;2023-05-07T15:32:10;10.03;;;7.67;;
4692;SDS011;11710;48.024;16.296;2023-05-07T15:34:38;9.30;;;6.63;;
4692;SDS011;11710;48.024;16.296;2023-05-07T15:37:06;7.80;;;7.10;;
4692;SDS011;11710;48.024;16.296;2023-05-07T15:39:33;9.27;;;7.77;;
4692;SDS011;11710;48.024;16.296;2023-05-07T15:42:01;7.60;;;6.90;;
4692;SDS011;11710;48.024;16.296;2023-05-07T15:44:28;9.60;;;6.57;;
4692;SDS011;11710;48.024;16.296;2023-05-07T15:46:58;9.90;;;7.30;;
4692;SDS011;11710;48.024;16.296;2023-05-07T15:49:27;7.40;;;6.70;;
4692;SDS011;11710;48.024;16.296;2023-05-07T15:51:54;7.77;;;6.63;;
4692;SDS011;11710;48.024;16.296;2023-05-07T15:54:22;6.83;;;6.00;;
4692;SDS011;11710;48.024;16.296;2023-05-07T15:56:49;8.00;;;6.07;;
4692;SDS011;11710;48.024;16.296;2023-05-07T15:59:16;7.30;;;6.60;;
4692;SDS011;11710;48.024;16.296;2023-05-07T16:01:43;7.53;;;6.73;;
4692;SDS011;11710;48.024;16.296;2023-05-07T16:04:11;7.10;;;6.40;;
4692;SDS011;11710;48.024;16.296;2023-05-07T16:06:39;7.23;;;6.53;;
4692;SDS011;11710;48.024;16.296;2023-05-07T16:09:09;7.17;;;6.57;;
4692;SDS011;11710;48.024;16.296;2023-05-07T16:11:36;6.30;;;5.70;;
4692;SDS011;11710;48.024;16.296;2023-05-07T16:14:03;5.47;;;5.00;;
4692;SDS011;11710;48.024;16.296;2023-05-07T16:16:31;6.17;;;5.57;;
4692;SDS011;11710;48.024;16.296;2023-05-07T16:18:59;6.13;;;5.53;;
4692;SDS011;11710;48.024;16.296;2023-05-07T16:21:26;6.13;;;5.53;;
4692;SDS011;11710;48.024;16.296;2023-05-07T16:23:56;6.90;;;6.30;;
4692;SDS011;11710;48.024;16.296;2023-05-07T16:26:23;6.53;;;5.93;;
4692;SDS011;11710;48.024;16.296;2023-05-07T16:28:51;9.00;;;6.90;;
4692;SDS011;11710;48.024;16.296;2023-05-07T16:31:18;6.50;;;5.93;;
4692;SDS011;11710;48.024;16.296;2023-05-07T16:33:45;6.33;;;5.63;;
4692;SDS011;11710;48.024;16.296;2023-05-07T16:36:15;9.40;;;5.77;;
4692;SDS011;11710;48.024;16.296;2023-05-07T16:38:43;9.90;;;6.10;;
4692;SDS011;11710;48.024;16.296;2023-05-07T16:41:12;6.33;;;5.67;;
4692;SDS011;11710;48.024;16.296;2023-05-07T16:43:39;6.50;;;5.90;;
4692;SDS011;11710;48.024;16.296;2023-05-07T16:46:06;6.57;;;5.97;;
4692;SDS011;11710;48.024;16.296;2023-05-07T16:48:33;7.70;;;6.53;;
4692;SDS011;11710;48.024;16.296;2023-05-07T16:51:00;7.13;;;5.97;;
4692;SDS011;11710;48.024;16.296;2023-05-07T16:53:28;6.90;;;6.20;;
4692;SDS011;11710;48.024;16.296;2023-05-07T16:55:55;7.30;;;6.60;;
4692;SDS011;11710;48.024;16.296;2023-05-07T16:58:23;7.30;;;6.20;;
4692;SDS011;11710;48.024;16.296;2023-05-07T17:00:52;6.30;;;5.50;;
4692;SDS011;11710;48.024;16.296;2023-05-07T17:03:19;8.60;;;6.37;;
4692;SDS011;11710;48.024;16.296;2023-05-07T17:05:46;8.30;;;6.83;;
4692;SDS011;11710;48.024;16.296;2023-05-07T17:08:14;7.80;;;6.50;;
4692;SDS011;11710;48.024;16.296;2023-05-07T17:10:41;7.10;;;6.30;;
4692;SDS011;11710;48.024;16.296;2023-05-07T17:13:09;9.10;;;6.57;;
4692;SDS011;11710;48.024;16.296;2023-05-07T17:15:38;6.87;;;6.17;;
4692;SDS011;11710;48.024;16.296;2023-05-07T17:18:07;9.70;;;7.13;;
4692;SDS011;11710;48.024;16.296;2023-05-07T17:20:34;8.27;;;6.40;;
4692;SDS011;11710;48.024;16.296;2023-05-07T17:23:04;11.10;;;7.20;;
4692;SDS011;11710;48.024;16.296;2023-05-07T17:25:31;8.20;;;7.40;;
4692;SDS011;11710;48.024;16.296;2023-05-07T17:28:01;8.60;;;7.70;;
4692;SDS011;11710;48.024;16.296;2023-05-07T17:30:28;9.40;;;8.40;;
4692;SDS011;11710;48.024;16.296;2023-05-07T17:32:57;8.07;;;7.20;;
4692;SDS011;11710;48.024;16.296;2023-05-07T17:35:33;9.37;;;7.77;;
4692;SDS011;11710;48.024;16.296;2023-05-07T17:38:10;8.75;;;7.55;;
4692;SDS011;11710;48.024;16.296;2023-05-07T17:40:37;13.02;;;10.43;;
4692;SDS011;11710;48.024;16.296;2023-05-07T17:43:04;12.30;;;9.50;;
4692;SDS011;11710;48.024;16.296;2023-05-07T17:45:37;12.88;;;10.27;;
4692;SDS011;11710;48.024;16.296;2023-05-07T17:48:06;8.95;;;7.90;;
4692;SDS011;11710;48.024;16.296;2023-05-07T17:50:34;9.15;;;8.13;;
4692;SDS011;11710;48.024;16.296;2023-05-07T17:53:01;9.77;;;7.50;;
4692;SDS011;11710;48.024;16.296;2023-05-07T17:55:30;10.32;;;9.07;;
4692;SDS011;11710;48.024;16.296;2023-05-07T17:57:58;8.82;;;7.95;;
4692;SDS011;11710;48.024;16.296;2023-05-07T18:00:26;9.65;;;8.05;;
4692;SDS011;11710;48.024;16.296;2023-05-07T18:02:53;9.73;;;8.40;;
4692;SDS011;11710;48.024;16.296;2023-05-07T18:05:25;9.45;;;8.48;;
4692;SDS011;11710;48.024;16.296;2023-05-07T18:07:52;10.98;;;9.15;;
4692;SDS011;11710;48.024;16.296;2023-05-07T18:10:20;9.45;;;8.32;;
4692;SDS011;11710;48.024;16.296;2023-05-07T18:12:48;12.93;;;8.10;;
4692;SDS011;11710;48.024;16.296;2023-05-07T18:15:15;10.43;;;7.82;;
4692;SDS011;11710;48.024;16.296;2023-05-07T18:17:43;8.43;;;7.30;;
4692;SDS011;11710;48.024;16.296;2023-05-07T18:20:10;9.63;;;8.30;;
4692;SDS011;11710;48.024;16.296;2023-05-07T18:22:39;8.98;;;8.02;;
4692;SDS011;11710;48.024;16.296;2023-05-07T18:25:07;9.20;;;7.82;;
4692;SDS011;11710;48.024;16.296;2023-05-07T18:27:34;13.25;;;7.82;;
4692;SDS011;11710;48.024;16.296;2023-05-07T18:30:01;8.45;;;7.53;;
4692;SDS011;11710;48.024;16.296;2023-05-07T18:32:29;10.18;;;8.52;;
4692;SDS011;11710;48.024;16.296;2023-05-07T18:34:56;8.82;;;7.47;;
4692;SDS011;11710;48.024;16.296;2023-05-07T18:37:23;9.68;;;7.50;;
4692;SDS011;11710;48.024;16.296;2023-05-07T18:39:52;8.68;;;7.75;;
4692;SDS011;11710;48.024;16.296;2023-05-07T18:42:20;11.80;;;7.90;;
4692;SDS011;11710;48.024;16.296;2023-05-07T18:44:49;9.07;;;7.95;;
4692;SDS011;11710;48.024;16.296;2023-05-07T18:47:16;8.48;;;7.63;;
4692;SDS011;11710;48.024;16.296;2023-05-07T18:49:43;12.38;;;8.23;;
4692;SDS011;11710;48.024;16.296;2023-05-07T18:52:11;10.18;;;8.13;;
4692;SDS011;11710;48.024;16.296;2023-05-07T18:54:41;11.40;;;8.70;;
4692;SDS011;11710;48.024;16.296;2023-05-07T18:57:14;9.02;;;7.60;;
4692;SDS011;11710;48.024;16.296;2023-05-07T18:59:45;8.50;;;7.60;;
4692;SDS011;11710;48.024;16.296;2023-05-07T19:02:18;11.52;;;8.55;;
4692;SDS011;11710;48.024;16.296;2023-05-07T19:04:47;10.45;;;9.32;;
4692;SDS011;11710;48.024;16.296;2023-05-07T19:07:19;8.77;;;7.88;;
4692;SDS011;11710;48.024;16.296;2023-05-07T19:09:47;9.30;;;8.30;;
4692;SDS011;11710;48.024;16.296;2023-05-07T19:12:17;9.77;;;8.40;;
4692;SDS011;11710;48.024;16.296;2023-05-07T19:14:45;8.73;;;7.82;;
4692;SDS011;11710;48.024;16.296;2023-05-07T19:17:17;10.15;;;8.75;;
4692;SDS011;11710;48.024;16.296;2023-05-07T19:19:47;10.65;;;8.55;;
